»·PEaware :: N973SE KSBA-KBUR

N973SE :: KSBA-KBUR

FLIGHT INFORMATION

Flight Status: Arrived
Operator: Privately registered:
United States
More flights under this callsign
Pilot: Stig E. (4778)
Aircraft: CESSNA 310
(C310)
More flights by this aircraft type
Origin: KSBA Santa Barbara Mun
United States
Destination: KBUR Bob Hope-Burbank
United States
More flights between these airports :: More routes between these airports
Route: KWANG5 RZS T257 VTU YTBNG
File this flight plan on PilotEdge
Remarks: +CW /
Altitude:
(Current/Filed)
5,500ft
Speed:
(Current/Filed)
170kts
Departed: 11-Feb-19 12:03 AM
Arrived: 11-Feb-19 12:37 AM
Distance/Time
Traveled:
75nm/0:34
Distance/Time
To Go:
Arrived

Flight Plot

Page will automatically refresh every two minutes.

Flight plan parsing failed; only flown route is shown


Map Options




Map Legend


Flown Route
Filed Route
Departure Airport
Arrival Airport
Navaid (VOR, NDB)
Fix

Horizontal Profiles

Position Reports

Time Latitude Longitude Heading Altitude Ground
Speed
10-Feb-19 23:43 34.432066 -119.838002 165 14ft 0kts
10-Feb-19 23:44 34.432066 -119.838002 165 14ft 0kts
10-Feb-19 23:45 34.432066 -119.838002 165 14ft 0kts
10-Feb-19 23:46 34.432066 -119.838002 165 14ft 0kts
10-Feb-19 23:47 34.432066 -119.838002 165 14ft 0kts
10-Feb-19 23:48 34.432066 -119.838002 165 14ft 0kts
10-Feb-19 23:49 34.432066 -119.838002 165 14ft 0kts
10-Feb-19 23:50 34.432066 -119.838002 165 14ft 0kts
10-Feb-19 23:51 34.432066 -119.838002 165 14ft 0kts
10-Feb-19 23:52 34.432066 -119.838002 165 14ft 0kts
10-Feb-19 23:53 34.432066 -119.838002 165 14ft 0kts
10-Feb-19 23:54 34.432066 -119.838002 165 14ft 0kts
10-Feb-19 23:55 34.432066 -119.838002 165 14ft 0kts
10-Feb-19 23:56 34.432047 -119.837997 165 14ft 0kts
10-Feb-19 23:57 34.432047 -119.837997 165 14ft 0kts
10-Feb-19 23:58 34.430325 -119.839301 187 13ft 13kts
10-Feb-19 23:59 34.426221 -119.838200 167 13ft 16kts
11-Feb-19 00:00 34.421487 -119.836827 162 14ft 17kts
11-Feb-19 00:01 34.420189 -119.837135 346 15ft 14kts
11-Feb-19 00:02 34.444857 -119.844517 345 642ft 142kts
11-Feb-19 00:03 34.475467 -119.870534 257 2168ft 159kts
11-Feb-19 00:04 34.440836 -119.868171 128 3701ft 162kts
11-Feb-19 00:05 34.419546 -119.820596 114 5204ft 160kts
11-Feb-19 00:06 34.401761 -119.771326 113 6695ft 157kts
11-Feb-19 00:07 34.383239 -119.719480 113 7056ft 176kts
11-Feb-19 00:08 34.361899 -119.659785 113 6353ft 200kts
11-Feb-19 00:09 34.339560 -119.597339 113 5655ft 202kts
11-Feb-19 00:10 34.318001 -119.537150 113 5498ft 186kts
11-Feb-19 00:11 34.296988 -119.481117 115 5499ft 181kts
11-Feb-19 00:12 34.274244 -119.426041 116 5306ft 188kts
11-Feb-19 00:13 34.250145 -119.368079 116 4811ft 194kts
11-Feb-19 00:14 34.225815 -119.309346 116 4309ft 194kts
11-Feb-19 00:15 34.202449 -119.250379 116 3807ft 193kts
11-Feb-19 00:16 34.178685 -119.192676 116 3498ft 185kts
11-Feb-19 00:17 34.157556 -119.141948 116 3496ft 156kts
11-Feb-19 00:18 34.138489 -119.096429 116 3499ft 148kts
11-Feb-19 00:19 34.119795 -119.052089 119 3499ft 147kts
11-Feb-19 00:21 34.116647 -119.003880 88 3500ft 146kts
11-Feb-19 00:22 34.117765 -118.954677 88 3500ft 146kts
11-Feb-19 00:23 34.118637 -118.905362 88 3500ft 146kts
11-Feb-19 00:24 34.119618 -118.856055 88 3499ft 146kts
11-Feb-19 00:25 34.120652 -118.806730 88 3499ft 146kts
11-Feb-19 00:26 34.121671 -118.757483 88 3500ft 146kts
11-Feb-19 00:27 34.122670 -118.708227 88 3500ft 146kts
11-Feb-19 00:28 34.123651 -118.658931 88 3499ft 146kts
11-Feb-19 00:29 34.124613 -118.609548 88 3500ft 146kts
11-Feb-19 00:30 34.125555 -118.560214 88 3500ft 146kts
11-Feb-19 00:31 34.126451 -118.511463 88 3323ft 143kts
11-Feb-19 00:32 34.127325 -118.462954 88 2825ft 145kts
11-Feb-19 00:33 34.128194 -118.414295 88 2324ft 144kts
11-Feb-19 00:34 34.129048 -118.368094 85 2197ft 130kts
11-Feb-19 00:35 34.158578 -118.355945 27 1930ft 137kts
11-Feb-19 00:36 34.191417 -118.354733 347 756ft 111kts
11-Feb-19 00:37 34.202767 -118.359473 254 735ft 7kts
11-Feb-19 00:38 34.200231 -118.359457 75 725ft 3kts
11-Feb-19 00:39 34.200252 -118.359355 76 724ft 0kts

Navigation Log

Ident Type
Flight plan parsing failed, navigation log unavailable